sensor_id;sensor_type;location;lat;lon;timestamp;P1;durP1;ratioP1;P2;durP2;ratioP2
73434;SDS011;61648;52.094;5.054;2022-08-19T04:46:11;9.27;;;3.25;;
73434;SDS011;61648;52.094;5.054;2022-08-19T04:48:38;7.22;;;3.45;;
73434;SDS011;61648;52.094;5.054;2022-08-19T04:51:08;7.60;;;3.08;;
73434;SDS011;61648;52.094;5.054;2022-08-19T04:53:35;8.77;;;3.42;;
73434;SDS011;61648;52.094;5.054;2022-08-19T04:56:06;7.00;;;3.00;;
73434;SDS011;61648;52.094;5.054;2022-08-19T04:58:33;8.18;;;3.47;;
73434;SDS011;61648;52.094;5.054;2022-08-19T05:00:59;8.02;;;3.40;;
73434;SDS011;61648;52.094;5.054;2022-08-19T05:03:25;8.00;;;3.42;;
73434;SDS011;61648;52.094;5.054;2022-08-19T05:05:51;7.82;;;3.28;;
73434;SDS011;61648;52.094;5.054;2022-08-19T05:08:19;8.20;;;3.17;;
73434;SDS011;61648;52.094;5.054;2022-08-19T05:10:47;7.50;;;3.03;;
73434;SDS011;61648;52.094;5.054;2022-08-19T05:13:14;8.57;;;3.50;;
73434;SDS011;61648;52.094;5.054;2022-08-19T05:15:41;7.50;;;3.45;;
73434;SDS011;61648;52.094;5.054;2022-08-19T05:18:07;9.32;;;3.53;;
73434;SDS011;61648;52.094;5.054;2022-08-19T05:20:51;9.48;;;3.60;;
73434;SDS011;61648;52.094;5.054;2022-08-19T05:23:36;9.75;;;3.80;;
73434;SDS011;61648;52.094;5.054;2022-08-19T05:26:02;8.02;;;3.50;;
73434;SDS011;61648;52.094;5.054;2022-08-19T05:28:28;8.35;;;3.58;;
73434;SDS011;61648;52.094;5.054;2022-08-19T05:30:54;14.77;;;4.75;;
73434;SDS011;61648;52.094;5.054;2022-08-19T05:33:21;13.20;;;4.22;;
73434;SDS011;61648;52.094;5.054;2022-08-19T05:35:47;10.75;;;3.63;;
73434;SDS011;61648;52.094;5.054;2022-08-19T05:38:14;11.13;;;4.57;;
73434;SDS011;61648;52.094;5.054;2022-08-19T05:40:40;10.98;;;4.03;;
73434;SDS011;61648;52.094;5.054;2022-08-19T05:43:07;11.55;;;4.10;;
73434;SDS011;61648;52.094;5.054;2022-08-19T05:45:37;13.00;;;4.28;;
73434;SDS011;61648;52.094;5.054;2022-08-19T05:48:05;10.88;;;4.13;;
73434;SDS011;61648;52.094;5.054;2022-08-19T05:50:31;13.30;;;5.45;;
73434;SDS011;61648;52.094;5.054;2022-08-19T05:52:56;10.48;;;4.20;;
73434;SDS011;61648;52.094;5.054;2022-08-19T05:55:23;10.13;;;4.25;;
73434;SDS011;61648;52.094;5.054;2022-08-19T05:57:49;12.18;;;4.43;;
73434;SDS011;61648;52.094;5.054;2022-08-19T06:00:15;12.05;;;4.40;;
73434;SDS011;61648;52.094;5.054;2022-08-19T06:02:41;10.98;;;4.18;;
73434;SDS011;61648;52.094;5.054;2022-08-19T06:05:07;11.80;;;4.32;;
73434;SDS011;61648;52.094;5.054;2022-08-19T06:07:37;11.68;;;4.55;;
73434;SDS011;61648;52.094;5.054;2022-08-19T06:10:04;12.40;;;4.97;;
73434;SDS011;61648;52.094;5.054;2022-08-19T06:12:31;11.30;;;4.47;;
73434;SDS011;61648;52.094;5.054;2022-08-19T06:15:00;14.07;;;5.68;;
73434;SDS011;61648;52.094;5.054;2022-08-19T06:17:27;12.27;;;4.88;;
73434;SDS011;61648;52.094;5.054;2022-08-19T06:19:54;12.45;;;4.45;;
73434;SDS011;61648;52.094;5.054;2022-08-19T06:22:20;12.70;;;5.22;;
73434;SDS011;61648;52.094;5.054;2022-08-19T06:24:46;13.18;;;5.25;;
73434;SDS011;61648;52.094;5.054;2022-08-19T06:27:12;16.45;;;5.53;;
73434;SDS011;61648;52.094;5.054;2022-08-19T06:29:38;13.48;;;5.55;;
73434;SDS011;61648;52.094;5.054;2022-08-19T06:32:04;15.20;;;5.72;;
73434;SDS011;61648;52.094;5.054;2022-08-19T06:34:31;13.90;;;5.78;;
73434;SDS011;61648;52.094;5.054;2022-08-19T06:36:58;17.05;;;6.13;;
73434;SDS011;61648;52.094;5.054;2022-08-19T06:39:30;15.32;;;5.60;;
73434;SDS011;61648;52.094;5.054;2022-08-19T06:41:59;15.30;;;6.25;;
73434;SDS011;61648;52.094;5.054;2022-08-19T06:44:26;14.57;;;5.72;;
73434;SDS011;61648;52.094;5.054;2022-08-19T06:46:54;15.02;;;5.97;;
73434;SDS011;61648;52.094;5.054;2022-08-19T06:49:20;17.13;;;7.00;;
73434;SDS011;61648;52.094;5.054;2022-08-19T06:51:47;16.27;;;6.68;;
73434;SDS011;61648;52.094;5.054;2022-08-19T06:54:14;15.65;;;6.43;;
73434;SDS011;61648;52.094;5.054;2022-08-19T06:56:40;16.58;;;6.43;;
73434;SDS011;61648;52.094;5.054;2022-08-19T06:59:08;16.75;;;7.50;;
73434;SDS011;61648;52.094;5.054;2022-08-19T07:01:35;18.75;;;7.80;;
73434;SDS011;61648;52.094;5.054;2022-08-19T07:04:02;16.92;;;7.40;;
73434;SDS011;61648;52.094;5.054;2022-08-19T07:06:28;16.90;;;7.57;;
73434;SDS011;61648;52.094;5.054;2022-08-19T07:08:55;20.55;;;9.18;;
73434;SDS011;61648;52.094;5.054;2022-08-19T07:11:22;18.35;;;8.38;;
73434;SDS011;61648;52.094;5.054;2022-08-19T07:13:48;18.30;;;8.63;;
73434;SDS011;61648;52.094;5.054;2022-08-19T07:16:16;18.85;;;8.82;;
73434;SDS011;61648;52.094;5.054;2022-08-19T07:18:42;18.02;;;9.05;;
73434;SDS011;61648;52.094;5.054;2022-08-19T07:21:10;19.02;;;9.05;;
73434;SDS011;61648;52.094;5.054;2022-08-19T07:23:36;19.25;;;8.98;;
73434;SDS011;61648;52.094;5.054;2022-08-19T07:26:10;19.65;;;9.73;;
73434;SDS011;61648;52.094;5.054;2022-08-19T07:28:37;18.42;;;9.75;;
73434;SDS011;61648;52.094;5.054;2022-08-19T07:31:04;19.48;;;9.65;;
73434;SDS011;61648;52.094;5.054;2022-08-19T07:33:30;22.55;;;11.13;;
73434;SDS011;61648;52.094;5.054;2022-08-19T07:35:57;23.52;;;12.13;;
73434;SDS011;61648;52.094;5.054;2022-08-19T07:38:23;21.48;;;10.38;;
73434;SDS011;61648;52.094;5.054;2022-08-19T07:40:49;24.00;;;12.10;;
73434;SDS011;61648;52.094;5.054;2022-08-19T07:43:16;22.15;;;11.65;;
73434;SDS011;61648;52.094;5.054;2022-08-19T07:45:49;20.23;;;10.63;;
73434;SDS011;61648;52.094;5.054;2022-08-19T07:48:16;23.92;;;12.48;;
73434;SDS011;61648;52.094;5.054;2022-08-19T07:50:42;22.42;;;11.55;;
73434;SDS011;61648;52.094;5.054;2022-08-19T07:53:08;23.05;;;11.95;;
73434;SDS011;61648;52.094;5.054;2022-08-19T07:55:34;24.02;;;12.10;;
73434;SDS011;61648;52.094;5.054;2022-08-19T07:58:00;20.38;;;11.27;;
73434;SDS011;61648;52.094;5.054;2022-08-19T08:00:26;21.40;;;11.43;;
73434;SDS011;61648;52.094;5.054;2022-08-19T08:02:52;23.42;;;11.90;;
73434;SDS011;61648;52.094;5.054;2022-08-19T08:05:18;21.83;;;11.00;;
73434;SDS011;61648;52.094;5.054;2022-08-19T08:08:02;21.42;;;11.57;;
73434;SDS011;61648;52.094;5.054;2022-08-19T08:11:07;23.63;;;13.05;;
73434;SDS011;61648;52.094;5.054;2022-08-19T08:13:33;22.30;;;12.13;;
73434;SDS011;61648;52.094;5.054;2022-08-19T08:16:00;22.08;;;12.00;;
73434;SDS011;61648;52.094;5.054;2022-08-19T08:18:27;22.10;;;12.20;;
73434;SDS011;61648;52.094;5.054;2022-08-19T08:20:53;22.95;;;13.00;;
73434;SDS011;61648;52.094;5.054;2022-08-19T08:23:19;22.20;;;11.95;;
73434;SDS011;61648;52.094;5.054;2022-08-19T08:25:49;22.27;;;12.00;;
73434;SDS011;61648;52.094;5.054;2022-08-19T08:28:16;23.08;;;12.88;;
73434;SDS011;61648;52.094;5.054;2022-08-19T08:30:43;21.75;;;11.98;;
73434;SDS011;61648;52.094;5.054;2022-08-19T08:33:10;23.85;;;13.52;;
73434;SDS011;61648;52.094;5.054;2022-08-19T08:35:37;24.13;;;14.60;;
73434;SDS011;61648;52.094;5.054;2022-08-19T08:38:03;23.48;;;12.82;;
73434;SDS011;61648;52.094;5.054;2022-08-19T08:40:43;21.52;;;12.63;;
73434;SDS011;61648;52.094;5.054;2022-08-19T08:43:32;22.65;;;12.85;;
73434;SDS011;61648;52.094;5.054;2022-08-19T08:50:57;25.67;;;14.00;;
73434;SDS011;61648;52.094;5.054;2022-08-19T08:53:24;23.35;;;13.27;;
73434;SDS011;61648;52.094;5.054;2022-08-19T08:55:51;24.02;;;14.27;;
73434;SDS011;61648;52.094;5.054;2022-08-19T08:58:20;24.67;;;12.75;;
73434;SDS011;61648;52.094;5.054;2022-08-19T09:00:49;22.50;;;12.90;;
73434;SDS011;61648;52.094;5.054;2022-08-19T09:03:20;22.40;;;13.88;;
73434;SDS011;61648;52.094;5.054;2022-08-19T09:08:33;21.15;;;11.98;;
73434;SDS011;61648;52.094;5.054;2022-08-19T09:11:04;22.88;;;13.02;;
73434;SDS011;61648;52.094;5.054;2022-08-19T09:16:10;24.58;;;14.30;;
73434;SDS011;61648;52.094;5.054;2022-08-19T09:18:38;22.60;;;12.73;;
73434;SDS011;61648;52.094;5.054;2022-08-19T09:21:05;23.23;;;13.88;;
73434;SDS011;61648;52.094;5.054;2022-08-19T09:23:32;23.15;;;13.95;;
73434;SDS011;61648;52.094;5.054;2022-08-19T09:25:58;23.95;;;13.70;;
73434;SDS011;61648;52.094;5.054;2022-08-19T09:28:24;23.40;;;12.98;;
73434;SDS011;61648;52.094;5.054;2022-08-19T09:30:50;22.23;;;13.32;;
73434;SDS011;61648;52.094;5.054;2022-08-19T09:33:16;22.27;;;13.63;;
73434;SDS011;61648;52.094;5.054;2022-08-19T09:35:42;22.08;;;12.57;;
73434;SDS011;61648;52.094;5.054;2022-08-19T09:38:08;23.15;;;13.57;;
73434;SDS011;61648;52.094;5.054;2022-08-19T09:40:34;23.23;;;13.20;;
73434;SDS011;61648;52.094;5.054;2022-08-19T09:43:00;22.40;;;13.45;;
73434;SDS011;61648;52.094;5.054;2022-08-19T09:45:27;23.25;;;14.20;;
73434;SDS011;61648;52.094;5.054;2022-08-19T09:47:53;24.83;;;14.18;;
73434;SDS011;61648;52.094;5.054;2022-08-19T09:50:19;21.83;;;13.18;;
73434;SDS011;61648;52.094;5.054;2022-08-19T09:52:45;21.17;;;13.65;;
73434;SDS011;61648;52.094;5.054;2022-08-19T09:55:11;21.83;;;12.80;;
73434;SDS011;61648;52.094;5.054;2022-08-19T09:57:37;22.25;;;13.00;;
73434;SDS011;61648;52.094;5.054;2022-08-19T10:00:05;23.13;;;13.60;;
73434;SDS011;61648;52.094;5.054;2022-08-19T10:02:32;23.02;;;13.43;;
73434;SDS011;61648;52.094;5.054;2022-08-19T10:04:58;23.90;;;13.88;;
73434;SDS011;61648;52.094;5.054;2022-08-19T10:07:42;25.48;;;14.07;;
73434;SDS011;61648;52.094;5.054;2022-08-19T10:10:08;27.73;;;15.45;;
73434;SDS011;61648;52.094;5.054;2022-08-19T10:12:35;23.88;;;13.98;;
73434;SDS011;61648;52.094;5.054;2022-08-19T10:15:01;24.42;;;14.23;;
73434;SDS011;61648;52.094;5.054;2022-08-19T10:17:27;23.23;;;14.52;;
73434;SDS011;61648;52.094;5.054;2022-08-19T10:19:53;22.55;;;13.40;;
73434;SDS011;61648;52.094;5.054;2022-08-19T10:22:19;23.10;;;13.43;;
73434;SDS011;61648;52.094;5.054;2022-08-19T10:24:46;23.95;;;13.50;;
73434;SDS011;61648;52.094;5.054;2022-08-19T10:27:12;23.38;;;12.98;;
73434;SDS011;61648;52.094;5.054;2022-08-19T10:29:39;21.33;;;11.95;;
73434;SDS011;61648;52.094;5.054;2022-08-19T10:32:06;23.55;;;13.77;;
73434;SDS011;61648;52.094;5.054;2022-08-19T10:34:33;20.42;;;12.35;;
73434;SDS011;61648;52.094;5.054;2022-08-19T10:37:00;22.35;;;11.85;;
73434;SDS011;61648;52.094;5.054;2022-08-19T10:39:26;22.90;;;13.27;;
73434;SDS011;61648;52.094;5.054;2022-08-19T10:41:55;22.38;;;12.48;;
73434;SDS011;61648;52.094;5.054;2022-08-19T10:44:21;24.00;;;12.23;;
73434;SDS011;61648;52.094;5.054;2022-08-19T10:46:48;24.17;;;14.88;;
73434;SDS011;61648;52.094;5.054;2022-08-19T10:49:15;26.48;;;16.25;;
73434;SDS011;61648;52.094;5.054;2022-08-19T10:51:41;25.30;;;15.45;;
73434;SDS011;61648;52.094;5.054;2022-08-19T10:54:26;31.48;;;14.75;;
73434;SDS011;61648;52.094;5.054;2022-08-19T10:57:12;23.92;;;14.57;;
73434;SDS011;61648;52.094;5.054;2022-08-19T10:59:38;25.42;;;14.52;;
73434;SDS011;61648;52.094;5.054;2022-08-19T11:02:05;23.30;;;14.48;;
73434;SDS011;61648;52.094;5.054;2022-08-19T11:04:32;24.05;;;12.88;;
73434;SDS011;61648;52.094;5.054;2022-08-19T11:06:58;21.33;;;12.18;;
73434;SDS011;61648;52.094;5.054;2022-08-19T11:09:24;24.67;;;13.75;;
73434;SDS011;61648;52.094;5.054;2022-08-19T11:11:52;23.23;;;13.17;;
73434;SDS011;61648;52.094;5.054;2022-08-19T11:14:18;22.85;;;13.38;;
73434;SDS011;61648;52.094;5.054;2022-08-19T11:16:45;22.00;;;12.02;;
73434;SDS011;61648;52.094;5.054;2022-08-19T11:19:12;20.73;;;13.25;;
73434;SDS011;61648;52.094;5.054;2022-08-19T11:21:40;22.55;;;12.13;;
73434;SDS011;61648;52.094;5.054;2022-08-19T11:24:08;20.67;;;11.80;;
73434;SDS011;61648;52.094;5.054;2022-08-19T11:26:35;23.02;;;11.80;;
73434;SDS011;61648;52.094;5.054;2022-08-19T11:29:01;26.42;;;12.50;;
73434;SDS011;61648;52.094;5.054;2022-08-19T11:31:29;21.02;;;12.07;;
73434;SDS011;61648;52.094;5.054;2022-08-19T11:33:59;18.70;;;11.35;;
73434;SDS011;61648;52.094;5.054;2022-08-19T11:36:26;22.13;;;12.00;;
73434;SDS011;61648;52.094;5.054;2022-08-19T11:38:52;19.17;;;10.82;;
73434;SDS011;61648;52.094;5.054;2022-08-19T11:41:19;20.65;;;10.50;;
73434;SDS011;61648;52.094;5.054;2022-08-19T11:43:45;19.42;;;10.55;;
73434;SDS011;61648;52.094;5.054;2022-08-19T11:46:12;25.40;;;10.80;;
73434;SDS011;61648;52.094;5.054;2022-08-19T11:48:39;19.33;;;11.65;;
73434;SDS011;61648;52.094;5.054;2022-08-19T11:51:06;18.13;;;10.85;;
73434;SDS011;61648;52.094;5.054;2022-08-19T11:53:33;17.50;;;9.43;;
73434;SDS011;61648;52.094;5.054;2022-08-19T11:55:59;22.20;;;9.80;;
73434;SDS011;61648;52.094;5.054;2022-08-19T11:58:25;16.65;;;9.00;;
73434;SDS011;61648;52.094;5.054;2022-08-19T12:00:52;17.08;;;8.90;;
73434;SDS011;61648;52.094;5.054;2022-08-19T12:03:18;18.90;;;9.05;;
73434;SDS011;61648;52.094;5.054;2022-08-19T12:05:44;16.10;;;9.18;;
73434;SDS011;61648;52.094;5.054;2022-08-19T12:08:10;15.98;;;8.27;;
73434;SDS011;61648;52.094;5.054;2022-08-19T12:10:38;16.58;;;8.55;;
73434;SDS011;61648;52.094;5.054;2022-08-19T12:13:04;15.90;;;7.70;;
73434;SDS011;61648;52.094;5.054;2022-08-19T12:15:34;15.15;;;7.20;;
73434;SDS011;61648;52.094;5.054;2022-08-19T12:18:00;15.10;;;6.82;;
73434;SDS011;61648;52.094;5.054;2022-08-19T12:20:26;18.48;;;7.05;;
73434;SDS011;61648;52.094;5.054;2022-08-19T12:22:52;16.95;;;6.95;;
73434;SDS011;61648;52.094;5.054;2022-08-19T12:25:18;16.48;;;6.55;;
73434;SDS011;61648;52.094;5.054;2022-08-19T12:27:44;15.77;;;6.57;;
73434;SDS011;61648;52.094;5.054;2022-08-19T12:30:11;15.40;;;6.68;;
73434;SDS011;61648;52.094;5.054;2022-08-19T12:32:37;14.82;;;6.70;;
73434;SDS011;61648;52.094;5.054;2022-08-19T12:35:04;15.13;;;6.18;;
73434;SDS011;61648;52.094;5.054;2022-08-19T12:37:30;12.80;;;5.63;;
73434;SDS011;61648;52.094;5.054;2022-08-19T12:39:57;13.90;;;6.13;;
73434;SDS011;61648;52.094;5.054;2022-08-19T12:42:23;14.88;;;6.07;;
73434;SDS011;61648;52.094;5.054;2022-08-19T12:44:49;13.57;;;6.15;;
73434;SDS011;61648;52.094;5.054;2022-08-19T12:47:16;14.68;;;5.90;;
73434;SDS011;61648;52.094;5.054;2022-08-19T12:49:42;11.07;;;4.95;;
73434;SDS011;61648;52.094;5.054;2022-08-19T12:52:09;14.85;;;5.75;;
73434;SDS011;61648;52.094;5.054;2022-08-19T12:54:36;12.43;;;5.28;;
73434;SDS011;61648;52.094;5.054;2022-08-19T12:57:06;16.58;;;6.32;;
73434;SDS011;61648;52.094;5.054;2022-08-19T12:59:33;15.95;;;6.00;;
73434;SDS011;61648;52.094;5.054;2022-08-19T13:01:59;11.38;;;4.95;;
73434;SDS011;61648;52.094;5.054;2022-08-19T13:04:25;14.10;;;5.90;;
73434;SDS011;61648;52.094;5.054;2022-08-19T13:06:51;14.32;;;5.43;;
73434;SDS011;61648;52.094;5.054;2022-08-19T13:09:17;15.25;;;5.45;;
73434;SDS011;61648;52.094;5.054;2022-08-19T13:11:43;13.50;;;5.15;;
73434;SDS011;61648;52.094;5.054;2022-08-19T13:14:09;12.27;;;5.20;;
73434;SDS011;61648;52.094;5.054;2022-08-19T13:16:36;12.15;;;4.70;;
73434;SDS011;61648;52.094;5.054;2022-08-19T13:19:03;10.93;;;4.75;;
73434;SDS011;61648;52.094;5.054;2022-08-19T13:21:30;14.38;;;4.85;;
73434;SDS011;61648;52.094;5.054;2022-08-19T13:23:56;13.63;;;5.35;;
73434;SDS011;61648;52.094;5.054;2022-08-19T13:26:22;11.35;;;4.68;;
73434;SDS011;61648;52.094;5.054;2022-08-19T13:28:48;15.30;;;4.78;;
73434;SDS011;61648;52.094;5.054;2022-08-19T13:31:34;10.50;;;3.85;;
73434;SDS011;61648;52.094;5.054;2022-08-19T13:34:25;9.32;;;3.35;;
73434;SDS011;61648;52.094;5.054;2022-08-19T13:36:52;8.30;;;3.38;;
73434;SDS011;61648;52.094;5.054;2022-08-19T13:39:18;11.60;;;3.25;;
73434;SDS011;61648;52.094;5.054;2022-08-19T13:41:44;12.77;;;3.90;;
73434;SDS011;61648;52.094;5.054;2022-08-19T13:44:15;8.20;;;3.63;;
73434;SDS011;61648;52.094;5.054;2022-08-19T13:46:43;9.85;;;3.80;;
73434;SDS011;61648;52.094;5.054;2022-08-19T13:49:10;10.32;;;3.95;;
73434;SDS011;61648;52.094;5.054;2022-08-19T13:51:37;11.23;;;3.47;;
73434;SDS011;61648;52.094;5.054;2022-08-19T13:54:05;11.05;;;3.42;;
73434;SDS011;61648;52.094;5.054;2022-08-19T13:56:31;9.50;;;3.10;;
73434;SDS011;61648;52.094;5.054;2022-08-19T13:58:57;11.85;;;3.90;;
73434;SDS011;61648;52.094;5.054;2022-08-19T14:01:23;11.30;;;3.90;;
73434;SDS011;61648;52.094;5.054;2022-08-19T14:03:49;13.10;;;4.30;;
73434;SDS011;61648;52.094;5.054;2022-08-19T14:06:15;12.15;;;4.13;;
73434;SDS011;61648;52.094;5.054;2022-08-19T14:08:41;11.27;;;3.60;;
73434;SDS011;61648;52.094;5.054;2022-08-19T14:11:08;9.55;;;3.40;;
73434;SDS011;61648;52.094;5.054;2022-08-19T14:13:34;8.95;;;3.40;;
73434;SDS011;61648;52.094;5.054;2022-08-19T14:16:00;7.80;;;2.85;;
73434;SDS011;61648;52.094;5.054;2022-08-19T14:18:27;9.45;;;3.00;;
73434;SDS011;61648;52.094;5.054;2022-08-19T14:20:52;9.82;;;3.08;;
73434;SDS011;61648;52.094;5.054;2022-08-19T14:23:19;9.18;;;3.60;;
73434;SDS011;61648;52.094;5.054;2022-08-19T14:25:45;8.45;;;3.03;;
73434;SDS011;61648;52.094;5.054;2022-08-19T14:28:11;7.10;;;3.00;;
73434;SDS011;61648;52.094;5.054;2022-08-19T14:30:37;7.32;;;3.00;;
73434;SDS011;61648;52.094;5.054;2022-08-19T14:33:09;9.40;;;3.40;;
73434;SDS011;61648;52.094;5.054;2022-08-19T14:35:35;7.45;;;2.72;;
73434;SDS011;61648;52.094;5.054;2022-08-19T14:38:03;6.45;;;2.97;;
73434;SDS011;61648;52.094;5.054;2022-08-19T14:40:30;7.82;;;2.92;;
73434;SDS011;61648;52.094;5.054;2022-08-19T14:42:57;8.05;;;2.85;;
73434;SDS011;61648;52.094;5.054;2022-08-19T14:45:30;7.60;;;3.15;;
73434;SDS011;61648;52.094;5.054;2022-08-19T14:47:56;10.18;;;3.10;;
73434;SDS011;61648;52.094;5.054;2022-08-19T14:50:24;7.83;;;3.00;;
73434;SDS011;61648;52.094;5.054;2022-08-19T14:52:56;7.75;;;2.70;;
73434;SDS011;61648;52.094;5.054;2022-08-19T14:55:22;6.78;;;3.05;;
73434;SDS011;61648;52.094;5.054;2022-08-19T14:57:48;6.72;;;2.63;;
73434;SDS011;61648;52.094;5.054;2022-08-19T15:00:15;8.27;;;3.20;;
73434;SDS011;61648;52.094;5.054;2022-08-19T15:02:41;6.63;;;2.67;;
73434;SDS011;61648;52.094;5.054;2022-08-19T15:05:11;8.10;;;2.88;;
73434;SDS011;61648;52.094;5.054;2022-08-19T15:07:37;8.40;;;2.83;;
73434;SDS011;61648;52.094;5.054;2022-08-19T15:10:04;7.70;;;2.80;;
73434;SDS011;61648;52.094;5.054;2022-08-19T15:12:31;6.50;;;2.80;;
73434;SDS011;61648;52.094;5.054;2022-08-19T15:14:58;7.88;;;2.97;;
73434;SDS011;61648;52.094;5.054;2022-08-19T15:17:24;9.20;;;3.28;;
73434;SDS011;61648;52.094;5.054;2022-08-19T15:19:51;7.18;;;3.17;;
73434;SDS011;61648;52.094;5.054;2022-08-19T15:22:17;6.45;;;2.72;;
73434;SDS011;61648;52.094;5.054;2022-08-19T15:24:43;8.20;;;3.00;;
73434;SDS011;61648;52.094;5.054;2022-08-19T15:27:11;4.88;;;2.40;;
73434;SDS011;61648;52.094;5.054;2022-08-19T15:29:37;7.25;;;3.10;;
73434;SDS011;61648;52.094;5.054;2022-08-19T15:32:03;8.35;;;3.03;;
73434;SDS011;61648;52.094;5.054;2022-08-19T15:34:31;7.85;;;2.80;;
73434;SDS011;61648;52.094;5.054;2022-08-19T15:36:57;6.60;;;2.53;;
73434;SDS011;61648;52.094;5.054;2022-08-19T15:39:24;8.68;;;2.92;;
73434;SDS011;61648;52.094;5.054;2022-08-19T15:41:50;4.55;;;2.55;;
73434;SDS011;61648;52.094;5.054;2022-08-19T15:44:17;7.03;;;3.03;;
73434;SDS011;61648;52.094;5.054;2022-08-19T15:46:46;7.20;;;2.75;;
73434;SDS011;61648;52.094;5.054;2022-08-19T15:49:13;7.35;;;2.88;;
73434;SDS011;61648;52.094;5.054;2022-08-19T15:51:40;6.32;;;2.90;;
73434;SDS011;61648;52.094;5.054;2022-08-19T15:54:09;7.07;;;2.78;;
73434;SDS011;61648;52.094;5.054;2022-08-19T15:56:36;6.30;;;2.92;;
73434;SDS011;61648;52.094;5.054;2022-08-19T15:59:21;6.50;;;2.53;;
73434;SDS011;61648;52.094;5.054;2022-08-19T16:02:06;5.95;;;2.83;;
73434;SDS011;61648;52.094;5.054;2022-08-19T16:04:51;8.32;;;2.90;;
73434;SDS011;61648;52.094;5.054;2022-08-19T16:07:36;7.47;;;2.90;;
73434;SDS011;61648;52.094;5.054;2022-08-19T16:10:03;6.82;;;2.80;;
73434;SDS011;61648;52.094;5.054;2022-08-19T16:12:29;4.90;;;2.60;;
73434;SDS011;61648;52.094;5.054;2022-08-19T16:14:55;6.38;;;2.70;;
73434;SDS011;61648;52.094;5.054;2022-08-19T16:17:21;7.28;;;2.97;;
73434;SDS011;61648;52.094;5.054;2022-08-19T16:19:47;5.55;;;2.45;;
73434;SDS011;61648;52.094;5.054;2022-08-19T16:22:13;6.20;;;2.70;;
73434;SDS011;61648;52.094;5.054;2022-08-19T16:24:39;6.30;;;2.90;;
73434;SDS011;61648;52.094;5.054;2022-08-19T16:27:05;6.20;;;2.72;;
73434;SDS011;61648;52.094;5.054;2022-08-19T16:29:31;6.38;;;2.63;;
73434;SDS011;61648;52.094;5.054;2022-08-19T16:34:26;27.83;;;8.70;;
73434;SDS011;61648;52.094;5.054;2022-08-19T16:36:52;26.48;;;9.55;;
73434;SDS011;61648;52.094;5.054;2022-08-19T16:39:18;27.98;;;7.55;;
73434;SDS011;61648;52.094;5.054;2022-08-19T16:41:44;22.95;;;6.72;;
73434;SDS011;61648;52.094;5.054;2022-08-19T16:44:11;32.30;;;11.43;;
73434;SDS011;61648;52.094;5.054;2022-08-19T16:46:38;31.27;;;9.35;;
73434;SDS011;61648;52.094;5.054;2022-08-19T16:49:05;30.17;;;9.82;;
73434;SDS011;61648;52.094;5.054;2022-08-19T16:51:31;32.33;;;9.20;;
73434;SDS011;61648;52.094;5.054;2022-08-19T16:53:57;22.52;;;7.20;;
73434;SDS011;61648;52.094;5.054;2022-08-19T16:56:24;22.33;;;6.53;;
73434;SDS011;61648;52.094;5.054;2022-08-19T16:58:53;22.67;;;7.15;;
73434;SDS011;61648;52.094;5.054;2022-08-19T17:01:19;23.30;;;6.75;;
73434;SDS011;61648;52.094;5.054;2022-08-19T17:03:46;24.73;;;6.03;;
73434;SDS011;61648;52.094;5.054;2022-08-19T17:06:15;18.23;;;5.75;;
73434;SDS011;61648;52.094;5.054;2022-08-19T17:08:42;17.20;;;5.15;;
73434;SDS011;61648;52.094;5.054;2022-08-19T17:11:08;15.82;;;4.95;;
73434;SDS011;61648;52.094;5.054;2022-08-19T17:13:36;15.90;;;4.40;;
73434;SDS011;61648;52.094;5.054;2022-08-19T17:16:02;15.23;;;4.60;;
73434;SDS011;61648;52.094;5.054;2022-08-19T17:18:28;9.10;;;3.10;;
73434;SDS011;61648;52.094;5.054;2022-08-19T17:20:56;8.45;;;2.35;;
73434;SDS011;61648;52.094;5.054;2022-08-19T17:23:23;5.72;;;1.90;;
73434;SDS011;61648;52.094;5.054;2022-08-19T17:25:49;6.95;;;2.58;;
73434;SDS011;61648;52.094;5.054;2022-08-19T17:28:17;7.43;;;2.13;;
73434;SDS011;61648;52.094;5.054;2022-08-19T17:30:43;6.18;;;1.52;;
73434;SDS011;61648;52.094;5.054;2022-08-19T17:33:09;7.32;;;2.00;;
73434;SDS011;61648;52.094;5.054;2022-08-19T17:35:36;8.07;;;1.85;;
73434;SDS011;61648;52.094;5.054;2022-08-19T17:38:08;3.70;;;1.70;;
73434;SDS011;61648;52.094;5.054;2022-08-19T17:40:34;7.28;;;1.92;;
73434;SDS011;61648;52.094;5.054;2022-08-19T17:43:01;4.30;;;1.83;;
73434;SDS011;61648;52.094;5.054;2022-08-19T17:45:28;2.92;;;1.42;;
73434;SDS011;61648;52.094;5.054;2022-08-19T17:47:54;3.40;;;1.40;;
73434;SDS011;61648;52.094;5.054;2022-08-19T17:50:21;4.38;;;1.40;;
73434;SDS011;61648;52.094;5.054;2022-08-19T17:52:47;4.20;;;1.50;;
73434;SDS011;61648;52.094;5.054;2022-08-19T17:55:16;4.25;;;1.52;;
73434;SDS011;61648;52.094;5.054;2022-08-19T17:57:42;7.20;;;1.83;;
73434;SDS011;61648;52.094;5.054;2022-08-19T18:00:08;4.57;;;1.83;;
73434;SDS011;61648;52.094;5.054;2022-08-19T18:02:53;4.20;;;1.58;;
73434;SDS011;61648;52.094;5.054;2022-08-19T18:05:24;3.97;;;1.25;;
73434;SDS011;61648;52.094;5.054;2022-08-19T18:07:51;3.80;;;1.45;;
73434;SDS011;61648;52.094;5.054;2022-08-19T18:10:20;5.65;;;1.75;;
73434;SDS011;61648;52.094;5.054;2022-08-19T18:12:47;5.40;;;1.73;;
73434;SDS011;61648;52.094;5.054;2022-08-19T18:15:14;4.53;;;1.75;;
73434;SDS011;61648;52.094;5.054;2022-08-19T18:17:40;4.35;;;1.33;;
73434;SDS011;61648;52.094;5.054;2022-08-19T18:20:06;5.38;;;1.88;;
73434;SDS011;61648;52.094;5.054;2022-08-19T18:22:34;3.55;;;1.40;;
73434;SDS011;61648;52.094;5.054;2022-08-19T18:25:01;3.95;;;1.25;;
73434;SDS011;61648;52.094;5.054;2022-08-19T18:27:28;2.08;;;0.95;;
73434;SDS011;61648;52.094;5.054;2022-08-19T18:29:54;4.32;;;1.10;;
73434;SDS011;61648;52.094;5.054;2022-08-19T18:32:23;3.10;;;1.40;;
73434;SDS011;61648;52.094;5.054;2022-08-19T18:34:55;4.05;;;1.05;;
73434;SDS011;61648;52.094;5.054;2022-08-19T18:37:21;2.97;;;1.38;;
73434;SDS011;61648;52.094;5.054;2022-08-19T18:39:49;2.28;;;1.20;;
73434;SDS011;61648;52.094;5.054;2022-08-19T18:42:34;5.18;;;1.20;;
73434;SDS011;61648;52.094;5.054;2022-08-19T18:45:19;4.50;;;1.40;;
73434;SDS011;61648;52.094;5.054;2022-08-19T18:48:03;1.50;;;0.98;;
73434;SDS011;61648;52.094;5.054;2022-08-19T18:50:48;4.57;;;1.40;;
73434;SDS011;61648;52.094;5.054;2022-08-19T18:53:15;2.70;;;1.60;;
73434;SDS011;61648;52.094;5.054;2022-08-19T18:55:40;3.20;;;1.30;;
73434;SDS011;61648;52.094;5.054;2022-08-19T18:58:07;3.33;;;1.70;;
73434;SDS011;61648;52.094;5.054;2022-08-19T19:00:34;5.00;;;1.48;;
73434;SDS011;61648;52.094;5.054;2022-08-19T19:03:01;5.40;;;1.90;;
73434;SDS011;61648;52.094;5.054;2022-08-19T19:05:27;3.35;;;1.60;;
73434;SDS011;61648;52.094;5.054;2022-08-19T19:07:53;6.38;;;1.90;;
73434;SDS011;61648;52.094;5.054;2022-08-19T19:10:19;7.57;;;2.15;;
73434;SDS011;61648;52.094;5.054;2022-08-19T19:12:45;6.03;;;2.10;;
73434;SDS011;61648;52.094;5.054;2022-08-19T19:15:11;9.23;;;2.22;;
73434;SDS011;61648;52.094;5.054;2022-08-19T19:17:38;9.90;;;2.60;;
73434;SDS011;61648;52.094;5.054;2022-08-19T19:20:05;6.67;;;2.27;;
73434;SDS011;61648;52.094;5.054;2022-08-19T19:22:32;7.93;;;2.50;;
73434;SDS011;61648;52.094;5.054;2022-08-19T19:24:57;10.23;;;3.15;;
73434;SDS011;61648;52.094;5.054;2022-08-19T19:27:24;10.40;;;3.22;;
73434;SDS011;61648;52.094;5.054;2022-08-19T19:29:50;8.07;;;2.70;;
73434;SDS011;61648;52.094;5.054;2022-08-19T19:32:18;9.45;;;2.60;;
73434;SDS011;61648;52.094;5.054;2022-08-19T19:34:44;11.27;;;2.35;;
73434;SDS011;61648;52.094;5.054;2022-08-19T19:37:10;8.93;;;2.38;;